createdAt,value
2023-05-28T00:00:12.109Z,19.44
2023-05-28T00:02:45.456Z,19.43
2023-05-28T00:05:13.777Z,19.41
2023-05-28T00:07:43.190Z,19.39
2023-05-28T00:10:11.579Z,19.39
2023-05-28T00:12:39.335Z,19.36
2023-05-28T00:15:09.070Z,19.32
2023-05-28T00:17:36.807Z,19.32
2023-05-28T00:20:05.730Z,19.29
2023-05-28T00:22:34.100Z,19.28
2023-05-28T00:25:01.764Z,19.26
2023-05-28T00:27:29.570Z,19.26
2023-05-28T00:29:57.274Z,19.22
2023-05-28T00:32:24.993Z,19.23
2023-05-28T00:34:53.165Z,19.20
2023-05-28T00:37:21.384Z,19.20
2023-05-28T00:39:49.135Z,19.21
2023-05-28T00:42:16.786Z,19.23
2023-05-28T00:44:45.375Z,19.21
2023-05-28T00:47:13.139Z,19.23
2023-05-28T00:49:41.011Z,19.20
2023-05-28T00:52:09.001Z,19.23
2023-05-28T00:54:36.849Z,19.26
2023-05-28T00:57:05.742Z,19.22
2023-05-28T00:59:35.479Z,19.21
2023-05-28T01:02:03.220Z,19.22
2023-05-28T01:04:33.834Z,19.24
2023-05-28T01:07:01.647Z,19.21
2023-05-28T01:09:29.489Z,19.25
2023-05-28T01:11:57.198Z,19.27
2023-05-28T01:14:25.002Z,19.23
2023-05-28T01:16:53.256Z,19.19
2023-05-28T01:19:23.256Z,19.18
2023-05-28T01:21:52.574Z,19.25
2023-05-28T01:24:20.307Z,19.15
2023-05-28T01:26:50.167Z,19.15
2023-05-28T01:29:18.883Z,19.12
2023-05-28T01:31:47.161Z,19.08
2023-05-28T01:34:14.977Z,19.01
2023-05-28T01:37:03.349Z,18.99
2023-05-28T01:39:37.871Z,18.95
2023-05-28T01:42:07.173Z,18.96
2023-05-28T01:44:34.911Z,18.94
2023-05-28T01:47:02.604Z,18.95
2023-05-28T01:49:30.496Z,18.94
2023-05-28T01:51:58.652Z,18.95
2023-05-28T01:54:26.608Z,18.88
2023-05-28T01:56:56.203Z,18.86
2023-05-28T01:59:24.012Z,18.86
2023-05-28T02:01:52.475Z,18.84
2023-05-28T02:04:20.361Z,18.81
2023-05-28T02:06:48.407Z,18.84
2023-05-28T02:09:16.158Z,18.91
2023-05-28T02:11:44.008Z,18.90
2023-05-28T02:14:15.602Z,18.94
2023-05-28T02:16:49.446Z,18.92
2023-05-28T02:19:18.898Z,18.99
2023-05-28T02:21:47.558Z,19.06
2023-05-28T02:24:15.195Z,19.12
2023-05-28T02:26:43.397Z,19.19
2023-05-28T02:29:11.111Z,19.20
2023-05-28T02:31:38.884Z,19.19
2023-05-28T02:34:06.643Z,19.24
2023-05-28T02:36:34.599Z,19.26
2023-05-28T02:39:03.757Z,19.36
2023-05-28T02:41:31.803Z,19.49
2023-05-28T02:43:59.684Z,19.59
2023-05-28T02:46:27.467Z,19.66
2023-05-28T02:48:55.771Z,19.72
2023-05-28T02:51:24.671Z,19.78
2023-05-28T02:54:00.666Z,19.89
2023-05-28T02:56:28.813Z,19.99
2023-05-28T02:58:56.540Z,20.09
2023-05-28T03:01:24.473Z,20.22
2023-05-28T03:03:52.386Z,20.33
2023-05-28T03:06:22.512Z,20.45
2023-05-28T03:08:53.950Z,20.56
2023-05-28T03:11:23.034Z,20.67
2023-05-28T03:13:51.676Z,20.72
2023-05-28T03:16:19.851Z,20.78
2023-05-28T03:18:47.870Z,20.81
2023-05-28T03:21:16.610Z,20.83
2023-05-28T03:23:44.577Z,20.86
2023-05-28T03:26:15.969Z,20.89
2023-05-28T03:28:43.986Z,20.93
2023-05-28T03:31:27.057Z,20.94
2023-05-28T03:33:54.934Z,20.95
2023-05-28T03:36:23.834Z,21.01
2023-05-28T03:38:51.989Z,21.04
2023-05-28T03:41:19.813Z,21.05
2023-05-28T03:43:48.160Z,21.07
2023-05-28T03:46:16.500Z,21.09
2023-05-28T03:48:45.103Z,21.12
2023-05-28T03:51:13.477Z,21.14
2023-05-28T03:53:41.693Z,21.18
2023-05-28T03:56:09.552Z,21.24
2023-05-28T03:58:37.540Z,21.31
2023-05-28T04:01:06.646Z,21.40
2023-05-28T04:03:34.808Z,21.42
2023-05-28T04:06:04.009Z,21.42
2023-05-28T04:08:31.828Z,21.46
2023-05-28T04:10:59.636Z,21.49
2023-05-28T04:13:27.802Z,21.51
2023-05-28T04:15:56.324Z,21.58
2023-05-28T04:18:24.223Z,21.65
2023-05-28T04:20:52.085Z,21.67
2023-05-28T04:23:20.568Z,21.73
2023-05-28T04:25:48.556Z,21.79
2023-05-28T04:28:16.319Z,21.85
2023-05-28T04:30:44.667Z,21.89
2023-05-28T04:33:12.490Z,21.98
2023-05-28T04:35:40.272Z,22.07
2023-05-28T04:38:08.373Z,22.11
2023-05-28T04:40:36.448Z,22.20
2023-05-28T04:43:04.405Z,22.32
2023-05-28T04:45:33.901Z,22.40
2023-05-28T04:48:02.818Z,22.50
2023-05-28T04:50:30.885Z,22.59
2023-05-28T04:52:59.775Z,22.72
2023-05-28T04:55:28.851Z,22.84
2023-05-28T04:57:57.091Z,22.97
2023-05-28T05:00:27.049Z,23.11
2023-05-28T05:02:56.358Z,23.08
2023-05-28T05:05:25.217Z,23.16
2023-05-28T05:07:53.335Z,23.33
2023-05-28T05:10:21.291Z,23.43
2023-05-28T05:12:50.908Z,23.59
2023-05-28T05:15:19.382Z,23.82
2023-05-28T05:17:49.120Z,24.00
2023-05-28T05:20:18.446Z,24.24
2023-05-28T05:22:46.384Z,24.47
2023-05-28T05:25:15.128Z,24.75
2023-05-28T05:27:45.278Z,24.93
2023-05-28T05:30:13.394Z,25.09
2023-05-28T05:32:41.230Z,25.28
2023-05-28T05:35:09.534Z,25.49
2023-05-28T05:37:56.180Z,25.78
2023-05-28T05:40:29.367Z,25.98
2023-05-28T05:43:02.033Z,26.21
2023-05-28T05:45:30.682Z,26.57
2023-05-28T05:47:58.558Z,26.82
2023-05-28T05:50:26.449Z,27.09
2023-05-28T05:52:54.422Z,27.46
2023-05-28T05:55:22.359Z,28.03
2023-05-28T05:57:51.151Z,28.77
2023-05-28T06:00:19.218Z,29.13
2023-05-28T06:02:50.068Z,29.37
2023-05-28T06:05:47.688Z,29.86
2023-05-28T06:08:45.191Z,30.57
2023-05-28T06:11:34.985Z,31.48
2023-05-28T06:14:02.761Z,32.14
2023-05-28T06:16:30.696Z,32.26
2023-05-28T06:18:58.559Z,32.57
2023-05-28T06:21:26.686Z,33.11
2023-05-28T06:23:54.483Z,33.79
2023-05-28T06:26:22.917Z,34.28
2023-05-28T06:28:51.402Z,34.76
2023-05-28T06:31:20.490Z,35.15
2023-05-28T06:33:49.344Z,35.53
2023-05-28T06:36:17.364Z,35.57
2023-05-28T06:38:45.000Z,35.89
2023-05-28T06:41:12.886Z,36.26
2023-05-28T06:43:49.836Z,36.26
2023-05-28T06:46:24.094Z,35.79
2023-05-28T06:48:52.207Z,35.87
2023-05-28T06:51:20.484Z,36.02
2023-05-28T06:53:48.698Z,36.08
2023-05-28T06:56:19.322Z,36.12
2023-05-28T06:59:06.196Z,36.48
2023-05-28T07:02:06.294Z,37.37
2023-05-28T07:05:12.452Z,37.42
2023-05-28T07:07:42.238Z,37.19
2023-05-28T07:10:12.466Z,37.27
2023-05-28T07:12:42.237Z,37.23
2023-05-28T07:15:11.541Z,37.35
2023-05-28T07:17:40.126Z,37.45
2023-05-28T07:20:08.841Z,37.07
2023-05-28T07:22:47.860Z,36.33
2023-05-28T07:25:16.026Z,35.91
2023-05-28T07:27:44.264Z,35.21
2023-05-28T07:30:13.427Z,34.70
2023-05-28T07:32:41.684Z,34.30
2023-05-28T07:35:10.056Z,33.81
2023-05-28T07:37:39.757Z,33.26
2023-05-28T07:40:09.159Z,32.97
2023-05-28T07:42:37.250Z,32.66
2023-05-28T07:45:08.793Z,32.13
2023-05-28T07:47:37.132Z,31.79
2023-05-28T07:50:15.891Z,31.37
2023-05-28T07:53:05.470Z,31.01
2023-05-28T07:55:34.273Z,30.62
2023-05-28T07:58:02.177Z,30.46
2023-05-28T08:00:31.066Z,30.28
2023-05-28T08:03:03.366Z,30.05
2023-05-28T08:05:39.821Z,30.04
2023-05-28T08:08:08.080Z,30.09
2023-05-28T08:10:37.069Z,29.77
2023-05-28T08:13:05.030Z,29.42
2023-05-28T08:15:34.248Z,29.30
2023-05-28T08:18:02.368Z,29.08
2023-05-28T08:20:31.731Z,29.05
2023-05-28T08:23:11.591Z,28.90
2023-05-28T08:25:39.516Z,28.96
2023-05-28T08:28:13.668Z,29.06
2023-05-28T08:30:41.783Z,29.28
2023-05-28T08:33:19.104Z,29.53
2023-05-28T08:35:46.965Z,29.78
2023-05-28T08:38:15.117Z,29.99
2023-05-28T08:40:50.821Z,29.94
2023-05-28T08:43:18.728Z,29.95
2023-05-28T08:45:46.916Z,30.13
2023-05-28T08:48:15.264Z,30.30
2023-05-28T08:50:45.498Z,30.50
2023-05-28T08:53:31.846Z,30.72
2023-05-28T08:55:59.872Z,30.89
2023-05-28T08:58:28.460Z,30.97
2023-05-28T09:00:57.438Z,30.98
2023-05-28T09:03:47.190Z,30.97
2023-05-28T09:06:18.910Z,30.89
2023-05-28T09:08:46.781Z,30.75
2023-05-28T09:11:22.398Z,31.05
2023-05-28T09:13:50.270Z,31.71
2023-05-28T09:16:22.965Z,32.45
2023-05-28T09:18:52.650Z,33.39
2023-05-28T09:21:21.055Z,33.92
2023-05-28T09:23:52.284Z,34.31
2023-05-28T09:26:40.133Z,34.33
2023-05-28T09:29:21.713Z,34.07
2023-05-28T09:31:59.150Z,33.81
2023-05-28T09:34:30.881Z,33.47
2023-05-28T09:37:02.811Z,33.27
2023-05-28T09:39:31.324Z,33.00
2023-05-28T09:42:14.611Z,32.80
2023-05-28T09:44:43.472Z,32.57
2023-05-28T09:47:16.102Z,32.65
2023-05-28T09:49:47.775Z,32.74
2023-05-28T09:52:22.072Z,32.66
2023-05-28T09:54:55.315Z,32.60
2023-05-28T09:57:26.792Z,32.66
2023-05-28T09:59:56.894Z,32.51
2023-05-28T10:02:41.612Z,32.62
2023-05-28T10:05:09.680Z,32.41
2023-05-28T10:07:37.685Z,32.02
2023-05-28T10:10:07.608Z,31.78
2023-05-28T10:12:35.675Z,31.56
2023-05-28T10:15:03.881Z,31.51
2023-05-28T10:17:31.752Z,31.72
2023-05-28T10:19:59.724Z,31.91
2023-05-28T10:22:27.619Z,32.08
2023-05-28T10:24:56.038Z,32.07
2023-05-28T10:27:31.585Z,32.01
2023-05-28T10:30:00.418Z,31.87
2023-05-28T10:32:28.341Z,31.94
2023-05-28T10:35:05.518Z,32.09
2023-05-28T10:37:33.700Z,32.13
2023-05-28T10:40:01.563Z,31.98
2023-05-28T10:42:29.249Z,31.81
2023-05-28T10:45:14.340Z,31.79
2023-05-28T10:47:53.355Z,31.51
2023-05-28T10:50:21.749Z,31.09
2023-05-28T10:53:08.991Z,30.81
2023-05-28T10:55:56.246Z,30.62
2023-05-28T10:58:29.200Z,30.28
2023-05-28T11:01:23.577Z,28.47
2023-05-28T11:03:55.980Z,26.86
2023-05-28T11:10:54.210Z,-5.01
2023-05-28T11:13:21.979Z,23.39
2023-05-28T11:15:49.853Z,22.67
2023-05-28T11:18:17.731Z,22.41
2023-05-28T11:20:45.713Z,22.41
2023-05-28T11:23:19.155Z,22.42
2023-05-28T11:25:47.372Z,22.48
2023-05-28T11:28:15.152Z,22.41
2023-05-28T11:30:42.960Z,22.34
2023-05-28T11:33:17.457Z,22.22
2023-05-28T11:35:48.776Z,22.11
2023-05-28T11:38:19.551Z,22.22
2023-05-28T11:40:47.379Z,22.35
2023-05-28T11:43:15.193Z,22.40
2023-05-28T11:45:43.070Z,22.42
2023-05-28T11:48:13.832Z,22.29
2023-05-28T11:50:41.724Z,22.27
2023-05-28T11:53:09.585Z,22.20
2023-05-28T11:55:37.481Z,22.20
2023-05-28T11:58:05.265Z,22.23
2023-05-28T12:00:37.770Z,22.19
2023-05-28T12:03:05.857Z,22.08
2023-05-28T12:05:40.157Z,22.07
2023-05-28T12:08:08.161Z,22.06
2023-05-28T12:10:36.100Z,22.03
2023-05-28T12:13:03.994Z,22.05
2023-05-28T12:15:31.845Z,22.09
2023-05-28T12:18:05.311Z,22.13
2023-05-28T12:20:51.681Z,22.16
2023-05-28T12:23:21.957Z,22.10
2023-05-28T12:25:50.577Z,22.09
2023-05-28T12:28:22.392Z,22.16
2023-05-28T12:30:52.366Z,22.21
2023-05-28T12:33:21.369Z,22.26
2023-05-28T12:35:49.450Z,22.30
2023-05-28T12:38:17.772Z,22.33
2023-05-28T12:40:45.648Z,22.34
2023-05-28T12:43:13.467Z,22.37
2023-05-28T12:45:41.483Z,22.42
2023-05-28T12:48:10.327Z,22.44
2023-05-28T12:50:38.437Z,22.49
2023-05-28T12:53:06.599Z,22.54
2023-05-28T12:55:34.553Z,22.64
2023-05-28T12:58:03.076Z,22.75
2023-05-28T13:00:31.329Z,22.83
2023-05-28T13:02:59.900Z,22.86
2023-05-28T13:05:28.992Z,22.88
2023-05-28T13:07:56.913Z,22.91
2023-05-28T13:10:24.879Z,22.98
2023-05-28T13:12:52.843Z,23.07
2023-05-28T13:15:20.902Z,23.09
2023-05-28T13:17:48.836Z,23.11
2023-05-28T13:20:17.133Z,23.15
2023-05-28T13:22:45.071Z,23.15
2023-05-28T13:25:13.371Z,23.19
2023-05-28T13:27:42.010Z,23.23
2023-05-28T13:30:10.496Z,23.31
2023-05-28T13:32:38.395Z,23.36
2023-05-28T13:35:06.711Z,23.44
2023-05-28T13:37:34.965Z,23.43
2023-05-28T13:40:09.326Z,23.38
2023-05-28T13:42:38.220Z,23.21
2023-05-28T13:45:06.908Z,23.21
2023-05-28T13:47:34.695Z,23.22
2023-05-28T13:50:02.738Z,23.24
2023-05-28T13:52:30.548Z,23.23
2023-05-28T13:54:58.401Z,23.24
2023-05-28T13:57:26.268Z,23.21
2023-05-28T13:59:53.905Z,23.21
2023-05-28T14:02:21.615Z,23.20
2023-05-28T14:05:46.403Z,23.19
2023-05-28T14:09:30.069Z,23.22
2023-05-28T14:12:22.344Z,23.26
2023-05-28T14:14:50.981Z,23.30
2023-05-28T14:17:18.886Z,23.37
2023-05-28T14:19:48.421Z,23.38
2023-05-28T14:22:16.769Z,23.40
2023-05-28T14:24:44.734Z,23.42
2023-05-28T14:27:12.686Z,23.41
2023-05-28T14:29:40.664Z,23.40
2023-05-28T14:32:08.626Z,23.43
2023-05-28T14:34:36.518Z,23.44
2023-05-28T14:37:05.133Z,23.35
2023-05-28T14:39:33.164Z,23.29
2023-05-28T14:42:01.495Z,23.28
2023-05-28T14:44:29.770Z,23.29
2023-05-28T14:46:58.225Z,23.26
2023-05-28T14:49:26.490Z,23.22
2023-05-28T14:51:56.687Z,23.19
2023-05-28T14:54:24.777Z,23.16
2023-05-28T14:56:53.270Z,23.16
2023-05-28T14:59:21.269Z,23.19
2023-05-28T15:01:49.256Z,23.25
2023-05-28T15:04:17.235Z,23.24
2023-05-28T15:06:45.192Z,23.23
2023-05-28T15:09:13.174Z,23.29
2023-05-28T15:11:41.167Z,23.31
2023-05-28T15:14:11.980Z,23.33
2023-05-28T15:16:39.991Z,23.34
2023-05-28T15:19:08.109Z,23.34
2023-05-28T15:21:36.379Z,23.34
2023-05-28T15:24:04.439Z,23.29
2023-05-28T15:26:32.369Z,23.29
2023-05-28T15:29:00.707Z,23.28
2023-05-28T15:31:28.725Z,23.26
2023-05-28T15:33:57.198Z,23.22
2023-05-28T15:36:25.676Z,23.23
2023-05-28T15:38:53.965Z,23.24
2023-05-28T15:41:21.905Z,23.22
2023-05-28T15:43:49.873Z,23.26
2023-05-28T15:46:18.101Z,23.26
2023-05-28T15:48:46.015Z,23.27
2023-05-28T15:51:14.313Z,23.24
2023-05-28T15:53:42.299Z,23.19
2023-05-28T15:56:10.505Z,23.15
2023-05-28T15:58:38.725Z,23.12
2023-05-28T16:01:07.453Z,23.10
2023-05-28T16:03:35.857Z,23.08
2023-05-28T16:06:05.107Z,23.08
2023-05-28T16:08:33.329Z,23.09
2023-05-28T16:11:01.672Z,23.06
2023-05-28T16:13:30.207Z,23.04
2023-05-28T16:15:59.367Z,23.01
2023-05-28T16:18:29.689Z,22.99
2023-05-28T16:21:00.191Z,22.99
2023-05-28T16:23:30.924Z,22.97
2023-05-28T16:25:59.975Z,22.95
2023-05-28T16:28:27.992Z,22.92
2023-05-28T16:30:59.276Z,22.91
2023-05-28T16:33:27.364Z,22.91
2023-05-28T16:35:57.196Z,22.88
2023-05-28T16:38:25.724Z,22.82
2023-05-28T16:40:53.799Z,22.77
2023-05-28T16:43:21.968Z,22.72
2023-05-28T16:45:50.021Z,22.68
2023-05-28T16:48:18.299Z,22.69
2023-05-28T16:50:48.529Z,22.58
2023-05-28T16:53:20.132Z,22.53
2023-05-28T16:55:48.186Z,22.45
2023-05-28T16:58:16.565Z,22.39
2023-05-28T17:00:44.523Z,22.30
2023-05-28T17:03:13.073Z,22.22
2023-05-28T17:05:41.356Z,22.09
2023-05-28T17:08:09.424Z,22.07
2023-05-28T17:10:37.404Z,22.04
2023-05-28T17:13:05.833Z,22.00
2023-05-28T17:15:33.794Z,21.98
2023-05-28T17:18:01.818Z,21.94
2023-05-28T17:20:29.672Z,21.90
2023-05-28T17:22:57.858Z,21.86
2023-05-28T17:25:26.803Z,21.82
2023-05-28T17:27:54.843Z,21.78
2023-05-28T17:30:22.986Z,21.73
2023-05-28T17:32:51.211Z,21.68
2023-05-28T17:35:19.330Z,21.65
2023-05-28T17:37:47.601Z,21.62
2023-05-28T17:40:15.892Z,21.58
2023-05-28T17:42:43.925Z,21.53
2023-05-28T17:45:11.953Z,21.47
2023-05-28T17:47:40.497Z,21.42
2023-05-28T17:50:08.884Z,21.35
2023-05-28T17:52:40.078Z,21.35
2023-05-28T17:55:08.569Z,21.34
2023-05-28T17:57:36.496Z,21.29
2023-05-28T18:00:10.057Z,21.28
2023-05-28T18:02:38.089Z,21.27
2023-05-28T18:05:06.563Z,21.26
2023-05-28T18:07:35.181Z,21.26
2023-05-28T18:10:03.134Z,21.24
2023-05-28T18:12:31.078Z,21.21
2023-05-28T18:14:58.919Z,21.19
2023-05-28T18:17:26.812Z,21.18
2023-05-28T18:19:54.630Z,21.17
2023-05-28T18:22:23.172Z,21.16
2023-05-28T18:24:51.527Z,21.14
2023-05-28T18:27:19.388Z,21.11
2023-05-28T18:29:47.295Z,21.10
2023-05-28T18:32:15.378Z,21.08
2023-05-28T18:34:43.401Z,21.06
2023-05-28T18:37:12.535Z,21.04
2023-05-28T18:39:40.981Z,21.00
2023-05-28T18:42:10.180Z,20.95
2023-05-28T18:44:42.425Z,20.94
2023-05-28T18:47:10.241Z,20.94
2023-05-28T18:49:38.300Z,20.92
2023-05-28T18:52:07.077Z,20.90
2023-05-28T18:54:35.534Z,20.87
2023-05-28T18:57:03.878Z,20.84
2023-05-28T18:59:31.796Z,20.81
2023-05-28T19:01:59.752Z,20.80
2023-05-28T19:04:28.663Z,20.77
2023-05-28T19:06:56.820Z,20.77
2023-05-28T19:09:25.155Z,20.71
2023-05-28T19:11:53.552Z,20.66
2023-05-28T19:14:21.823Z,20.62
2023-05-28T19:16:50.051Z,20.63
2023-05-28T19:19:18.227Z,20.61
2023-05-28T19:21:46.147Z,20.58
2023-05-28T19:24:14.072Z,20.54
2023-05-28T19:26:42.021Z,20.50
2023-05-28T19:29:09.844Z,20.48
2023-05-28T19:31:41.101Z,20.46
2023-05-28T19:34:09.108Z,20.42
2023-05-28T19:36:37.748Z,20.39
2023-05-28T19:39:06.758Z,20.34
2023-05-28T19:41:36.629Z,20.29
2023-05-28T19:44:06.490Z,20.25
2023-05-28T19:46:34.794Z,20.19
2023-05-28T19:49:02.917Z,20.12
2023-05-28T19:51:30.807Z,20.07
2023-05-28T19:53:58.818Z,20.01
2023-05-28T19:56:26.907Z,19.96
2023-05-28T19:58:55.280Z,19.83
2023-05-28T20:01:25.246Z,19.79
2023-05-28T20:03:53.637Z,19.79
2023-05-28T20:06:22.207Z,19.81
2023-05-28T20:08:50.196Z,19.82
2023-05-28T20:11:18.541Z,19.78
2023-05-28T20:13:46.924Z,19.76
2023-05-28T20:16:18.325Z,19.75
2023-05-28T20:18:46.762Z,19.73
2023-05-28T20:21:14.726Z,19.67
2023-05-28T20:23:42.667Z,19.64
2023-05-28T20:26:10.985Z,19.65
2023-05-28T20:28:38.804Z,19.64
2023-05-28T20:31:06.665Z,19.64
2023-05-28T20:33:34.538Z,19.62
2023-05-28T20:36:02.461Z,19.65
2023-05-28T20:38:30.361Z,19.61
2023-05-28T20:40:58.155Z,19.59
2023-05-28T20:43:26.548Z,19.61
2023-05-28T20:45:54.732Z,19.59
2023-05-28T20:48:22.682Z,19.54
2023-05-28T20:50:50.500Z,19.50
2023-05-28T20:53:18.448Z,19.48
2023-05-28T20:55:46.348Z,19.44
2023-05-28T20:58:22.220Z,19.42
2023-05-28T21:00:54.497Z,19.40
2023-05-28T21:03:22.530Z,19.39
2023-05-28T21:05:50.624Z,19.39
2023-05-28T21:08:18.518Z,19.40
2023-05-28T21:10:47.035Z,19.39
2023-05-28T21:13:14.895Z,19.38
2023-05-28T21:15:42.731Z,19.38
2023-05-28T21:18:10.695Z,19.36
2023-05-28T21:20:39.722Z,19.35
2023-05-28T21:23:07.845Z,19.33
2023-05-28T21:25:35.636Z,19.34
2023-05-28T21:28:03.479Z,19.35
2023-05-28T21:30:31.635Z,19.34
2023-05-28T21:32:59.695Z,19.34
2023-05-28T21:35:27.528Z,19.33
2023-05-28T21:37:55.331Z,19.31
2023-05-28T21:40:23.211Z,19.31
2023-05-28T21:42:52.061Z,19.27
2023-05-28T21:45:21.462Z,19.23
2023-05-28T21:47:49.382Z,19.18
2023-05-28T21:50:19.206Z,19.18
2023-05-28T21:52:47.408Z,19.22
2023-05-28T21:55:15.247Z,19.22
2023-05-28T21:57:43.522Z,19.24
2023-05-28T22:00:17.029Z,19.21
2023-05-28T22:02:44.942Z,19.20
2023-05-28T22:05:13.558Z,19.20
2023-05-28T22:07:42.021Z,19.15
2023-05-28T22:10:12.906Z,19.18
2023-05-28T22:12:42.160Z,19.17
2023-05-28T22:15:10.882Z,19.17
2023-05-28T22:17:42.483Z,19.17
2023-05-28T22:20:11.376Z,19.14
2023-05-28T22:22:39.898Z,19.14
2023-05-28T22:25:08.338Z,19.16
2023-05-28T22:27:36.888Z,19.17
2023-05-28T22:30:06.492Z,19.19
2023-05-28T22:32:34.929Z,19.20
2023-05-28T22:35:03.012Z,19.20
2023-05-28T22:37:31.470Z,19.20
2023-05-28T22:39:59.688Z,19.20
2023-05-28T22:42:27.276Z,19.23
2023-05-28T22:44:54.898Z,19.25
2023-05-28T22:47:27.714Z,19.25
2023-05-28T22:49:57.322Z,19.26
2023-05-28T22:52:25.997Z,19.30
2023-05-28T22:54:53.773Z,19.34
2023-05-28T22:57:21.474Z,19.33
2023-05-28T22:59:49.196Z,19.37
2023-05-28T23:02:16.967Z,19.47
2023-05-28T23:04:44.826Z,19.61
2023-05-28T23:07:12.622Z,19.72
2023-05-28T23:09:40.844Z,19.79
2023-05-28T23:12:08.892Z,19.90
2023-05-28T23:14:37.370Z,20.03
2023-05-28T23:17:05.164Z,20.19
2023-05-28T23:19:35.574Z,20.40
2023-05-28T23:22:03.335Z,20.48
2023-05-28T23:24:31.681Z,20.53
2023-05-28T23:26:59.521Z,20.54
2023-05-28T23:29:27.206Z,20.58
2023-05-28T23:31:54.853Z,20.60
2023-05-28T23:34:22.512Z,20.65
2023-05-28T23:36:50.329Z,20.75
2023-05-28T23:39:18.122Z,20.76
2023-05-28T23:41:45.889Z,20.75
2023-05-28T23:44:13.589Z,20.72
2023-05-28T23:46:41.452Z,20.70
2023-05-28T23:49:09.909Z,20.63
2023-05-28T23:51:37.925Z,20.56
2023-05-28T23:54:05.797Z,20.45
2023-05-28T23:56:33.518Z,20.34
2023-05-28T23:59:01.363Z,20.27
